sensor_id;sensor_type;location;lat;lon;timestamp;P1;durP1;ratioP1;P2;durP2;ratioP2
35223;SDS011;21367;51.930;8.112;2023-04-24T00:04:43;3.00;;;0.40;;
35223;SDS011;21367;51.930;8.112;2023-04-24T00:14:56;1.60;;;0.30;;
35223;SDS011;21367;51.930;8.112;2023-04-24T00:20:00;2.30;;;0.45;;
35223;SDS011;21367;51.930;8.112;2023-04-24T00:25:08;3.90;;;1.00;;
35223;SDS011;21367;51.930;8.112;2023-04-24T00:30:12;13.43;;;1.88;;
35223;SDS011;21367;51.930;8.112;2023-04-24T00:35:16;4.00;;;1.15;;
35223;SDS011;21367;51.930;8.112;2023-04-24T00:40:25;1.42;;;0.65;;
35223;SDS011;21367;51.930;8.112;2023-04-24T00:45:30;2.45;;;0.73;;
35223;SDS011;21367;51.930;8.112;2023-04-24T00:50:35;4.35;;;0.70;;
35223;SDS011;21367;51.930;8.112;2023-04-24T00:55:42;2.38;;;0.88;;
35223;SDS011;21367;51.930;8.112;2023-04-24T01:00:49;6.72;;;0.88;;
35223;SDS011;21367;51.930;8.112;2023-04-24T01:05:57;2.50;;;0.52;;
35223;SDS011;21367;51.930;8.112;2023-04-24T01:11:06;2.35;;;0.80;;
35223;SDS011;21367;51.930;8.112;2023-04-24T01:16:09;2.22;;;0.80;;
35223;SDS011;21367;51.930;8.112;2023-04-24T01:21:14;2.80;;;0.98;;
35223;SDS011;21367;51.930;8.112;2023-04-24T01:26:23;2.10;;;0.90;;
35223;SDS011;21367;51.930;8.112;2023-04-24T01:31:27;7.38;;;1.05;;
35223;SDS011;21367;51.930;8.112;2023-04-24T01:36:32;1.10;;;0.75;;
35223;SDS011;21367;51.930;8.112;2023-04-24T01:41:42;7.28;;;1.20;;
35223;SDS011;21367;51.930;8.112;2023-04-24T01:46:46;3.00;;;0.75;;
35223;SDS011;21367;51.930;8.112;2023-04-24T01:51:50;1.60;;;1.00;;
35223;SDS011;21367;51.930;8.112;2023-04-24T01:56:57;2.53;;;1.20;;
35223;SDS011;21367;51.930;8.112;2023-04-24T02:02:01;3.55;;;0.82;;
35223;SDS011;21367;51.930;8.112;2023-04-24T02:07:05;3.45;;;1.33;;
35223;SDS011;21367;51.930;8.112;2023-04-24T02:12:12;3.70;;;1.70;;
35223;SDS011;21367;51.930;8.112;2023-04-24T02:17:15;3.10;;;1.70;;
35223;SDS011;21367;51.930;8.112;2023-04-24T02:22:20;4.00;;;1.77;;
35223;SDS011;21367;51.930;8.112;2023-04-24T02:27:26;3.70;;;1.88;;
35223;SDS011;21367;51.930;8.112;2023-04-24T02:32:31;3.30;;;1.77;;
35223;SDS011;21367;51.930;8.112;2023-04-24T02:37:36;5.32;;;1.50;;
35223;SDS011;21367;51.930;8.112;2023-04-24T02:42:42;3.55;;;1.40;;
35223;SDS011;21367;51.930;8.112;2023-04-24T02:47:46;5.28;;;2.03;;
35223;SDS011;21367;51.930;8.112;2023-04-24T02:52:50;4.32;;;1.73;;
35223;SDS011;21367;51.930;8.112;2023-04-24T02:57:57;4.20;;;1.73;;
35223;SDS011;21367;51.930;8.112;2023-04-24T03:03:01;4.05;;;1.90;;
35223;SDS011;21367;51.930;8.112;2023-04-24T03:08:06;5.22;;;1.35;;
35223;SDS011;21367;51.930;8.112;2023-04-24T03:13:13;4.18;;;2.00;;
35223;SDS011;21367;51.930;8.112;2023-04-24T03:18:19;5.68;;;1.70;;
35223;SDS011;21367;51.930;8.112;2023-04-24T03:23:25;7.20;;;2.30;;
35223;SDS011;21367;51.930;8.112;2023-04-24T03:28:32;5.22;;;2.20;;
35223;SDS011;21367;51.930;8.112;2023-04-24T03:33:38;3.55;;;1.92;;
35223;SDS011;21367;51.930;8.112;2023-04-24T03:38:42;4.45;;;1.92;;
35223;SDS011;21367;51.930;8.112;2023-04-24T03:44:11;4.22;;;2.40;;
35223;SDS011;21367;51.930;8.112;2023-04-24T03:49:15;7.30;;;2.40;;
35223;SDS011;21367;51.930;8.112;2023-04-24T03:54:21;5.82;;;2.33;;
35223;SDS011;21367;51.930;8.112;2023-04-24T03:59:29;3.50;;;2.50;;
35223;SDS011;21367;51.930;8.112;2023-04-24T04:04:49;7.65;;;2.78;;
35223;SDS011;21367;51.930;8.112;2023-04-24T04:09:54;6.93;;;3.38;;
35223;SDS011;21367;51.930;8.112;2023-04-24T04:15:00;14.25;;;7.32;;
35223;SDS011;21367;51.930;8.112;2023-04-24T04:20:05;17.35;;;8.98;;
35223;SDS011;21367;51.930;8.112;2023-04-24T04:25:13;19.73;;;8.48;;
35223;SDS011;21367;51.930;8.112;2023-04-24T04:30:22;22.67;;;10.98;;
35223;SDS011;21367;51.930;8.112;2023-04-24T04:35:32;15.73;;;9.13;;
35223;SDS011;21367;51.930;8.112;2023-04-24T04:40:37;23.15;;;10.15;;
35223;SDS011;21367;51.930;8.112;2023-04-24T04:45:44;23.83;;;10.88;;
35223;SDS011;21367;51.930;8.112;2023-04-24T04:50:57;21.55;;;10.45;;
35223;SDS011;21367;51.930;8.112;2023-04-24T04:56:02;21.45;;;11.18;;
35223;SDS011;21367;51.930;8.112;2023-04-24T05:01:22;23.98;;;10.43;;
35223;SDS011;21367;51.930;8.112;2023-04-24T05:06:29;22.13;;;11.13;;
35223;SDS011;21367;51.930;8.112;2023-04-24T05:11:33;22.25;;;10.45;;
35223;SDS011;21367;51.930;8.112;2023-04-24T05:16:40;23.23;;;10.65;;
35223;SDS011;21367;51.930;8.112;2023-04-24T05:21:45;21.08;;;11.52;;
35223;SDS011;21367;51.930;8.112;2023-04-24T05:26:49;24.33;;;10.75;;
35223;SDS011;21367;51.930;8.112;2023-04-24T05:32:01;22.20;;;11.63;;
35223;SDS011;21367;51.930;8.112;2023-04-24T05:37:05;28.55;;;12.10;;
35223;SDS011;21367;51.930;8.112;2023-04-24T05:42:10;27.08;;;12.68;;
35223;SDS011;21367;51.930;8.112;2023-04-24T05:47:20;20.05;;;11.27;;
35223;SDS011;21367;51.930;8.112;2023-04-24T05:52:29;24.73;;;11.68;;
35223;SDS011;21367;51.930;8.112;2023-04-24T05:57:36;21.80;;;10.85;;
35223;SDS011;21367;51.930;8.112;2023-04-24T06:02:43;26.13;;;11.57;;
35223;SDS011;21367;51.930;8.112;2023-04-24T06:07:48;28.98;;;14.07;;
35223;SDS011;21367;51.930;8.112;2023-04-24T06:12:52;23.55;;;12.57;;
35223;SDS011;21367;51.930;8.112;2023-04-24T06:17:59;20.95;;;12.75;;
35223;SDS011;21367;51.930;8.112;2023-04-24T06:23:03;28.38;;;13.07;;
35223;SDS011;21367;51.930;8.112;2023-04-24T06:28:07;25.58;;;12.45;;
35223;SDS011;21367;51.930;8.112;2023-04-24T06:33:14;24.33;;;12.00;;
35223;SDS011;21367;51.930;8.112;2023-04-24T06:38:19;24.30;;;12.52;;
35223;SDS011;21367;51.930;8.112;2023-04-24T06:43:26;23.65;;;11.77;;
35223;SDS011;21367;51.930;8.112;2023-04-24T06:48:32;26.17;;;12.35;;
35223;SDS011;21367;51.930;8.112;2023-04-24T06:53:36;25.67;;;12.73;;
35223;SDS011;21367;51.930;8.112;2023-04-24T06:58:40;22.70;;;11.00;;
35223;SDS011;21367;51.930;8.112;2023-04-24T07:03:46;21.85;;;10.40;;
35223;SDS011;21367;51.930;8.112;2023-04-24T07:13:54;21.52;;;8.90;;
35223;SDS011;21367;51.930;8.112;2023-04-24T07:19:00;12.13;;;7.10;;
35223;SDS011;21367;51.930;8.112;2023-04-24T07:24:04;9.30;;;5.70;;
35223;SDS011;21367;51.930;8.112;2023-04-24T07:29:09;11.80;;;5.82;;
35223;SDS011;21367;51.930;8.112;2023-04-24T07:34:16;16.25;;;6.07;;
35223;SDS011;21367;51.930;8.112;2023-04-24T07:39:20;10.82;;;6.05;;
35223;SDS011;21367;51.930;8.112;2023-04-24T07:44:24;18.48;;;5.78;;
35223;SDS011;21367;51.930;8.112;2023-04-24T07:49:30;10.07;;;4.95;;
35223;SDS011;21367;51.930;8.112;2023-04-24T07:54:35;11.80;;;5.40;;
35223;SDS011;21367;51.930;8.112;2023-04-24T07:59:39;9.43;;;4.88;;
35223;SDS011;21367;51.930;8.112;2023-04-24T08:04:45;7.18;;;4.72;;
35223;SDS011;21367;51.930;8.112;2023-04-24T08:14:52;6.47;;;3.75;;
35223;SDS011;21367;51.930;8.112;2023-04-24T08:19:58;6.22;;;4.13;;
35223;SDS011;21367;51.930;8.112;2023-04-24T08:25:03;6.15;;;3.90;;
35223;SDS011;21367;51.930;8.112;2023-04-24T08:30:08;8.10;;;4.65;;
35223;SDS011;21367;51.930;8.112;2023-04-24T08:35:15;15.68;;;4.50;;
35223;SDS011;21367;51.930;8.112;2023-04-24T08:40:19;7.45;;;4.53;;
35223;SDS011;21367;51.930;8.112;2023-04-24T08:45:30;10.57;;;4.07;;
35223;SDS011;21367;51.930;8.112;2023-04-24T08:50:38;7.53;;;4.78;;
35223;SDS011;21367;51.930;8.112;2023-04-24T08:55:46;10.23;;;4.50;;
35223;SDS011;21367;51.930;8.112;2023-04-24T09:00:52;8.85;;;3.55;;
35223;SDS011;21367;51.930;8.112;2023-04-24T09:06:00;4.63;;;2.30;;
35223;SDS011;21367;51.930;8.112;2023-04-24T09:11:06;2.03;;;1.33;;
35223;SDS011;21367;51.930;8.112;2023-04-24T09:16:10;4.13;;;1.35;;
35223;SDS011;21367;51.930;8.112;2023-04-24T09:21:17;3.42;;;1.90;;
35223;SDS011;21367;51.930;8.112;2023-04-24T09:26:24;7.60;;;2.13;;
35223;SDS011;21367;51.930;8.112;2023-04-24T09:31:28;5.68;;;2.95;;
35223;SDS011;21367;51.930;8.112;2023-04-24T09:36:36;3.78;;;2.40;;
35223;SDS011;21367;51.930;8.112;2023-04-24T09:41:43;4.40;;;2.65;;
35223;SDS011;21367;51.930;8.112;2023-04-24T09:46:49;4.75;;;2.85;;
35223;SDS011;21367;51.930;8.112;2023-04-24T09:52:05;3.67;;;2.30;;
35223;SDS011;21367;51.930;8.112;2023-04-24T09:57:10;4.22;;;2.50;;
35223;SDS011;21367;51.930;8.112;2023-04-24T10:02:18;6.43;;;3.10;;
35223;SDS011;21367;51.930;8.112;2023-04-24T10:07:25;5.55;;;2.95;;
35223;SDS011;21367;51.930;8.112;2023-04-24T10:12:29;8.57;;;3.50;;
35223;SDS011;21367;51.930;8.112;2023-04-24T10:17:33;6.07;;;3.33;;
35223;SDS011;21367;51.930;8.112;2023-04-24T10:22:41;4.85;;;2.88;;
35223;SDS011;21367;51.930;8.112;2023-04-24T10:27:47;4.15;;;3.75;;
35223;SDS011;21367;51.930;8.112;2023-04-24T10:32:51;6.78;;;4.63;;
35223;SDS011;21367;51.930;8.112;2023-04-24T10:37:59;5.10;;;4.00;;
35223;SDS011;21367;51.930;8.112;2023-04-24T10:43:07;7.25;;;3.88;;
35223;SDS011;21367;51.930;8.112;2023-04-24T10:48:11;5.90;;;4.20;;
35223;SDS011;21367;51.930;8.112;2023-04-24T10:53:21;7.53;;;4.65;;
35223;SDS011;21367;51.930;8.112;2023-04-24T10:58:35;5.18;;;4.13;;
35223;SDS011;21367;51.930;8.112;2023-04-24T11:03:40;7.45;;;4.32;;
35223;SDS011;21367;51.930;8.112;2023-04-24T11:08:58;6.10;;;3.90;;
35223;SDS011;21367;51.930;8.112;2023-04-24T11:14:07;6.45;;;4.18;;
35223;SDS011;21367;51.930;8.112;2023-04-24T11:19:17;4.50;;;3.72;;
35223;SDS011;21367;51.930;8.112;2023-04-24T11:24:27;5.28;;;4.25;;
35223;SDS011;21367;51.930;8.112;2023-04-24T11:29:43;4.43;;;3.10;;
35223;SDS011;21367;51.930;8.112;2023-04-24T11:34:49;6.82;;;3.50;;
35223;SDS011;21367;51.930;8.112;2023-04-24T11:39:58;5.90;;;2.78;;
35223;SDS011;21367;51.930;8.112;2023-04-24T11:45:02;6.13;;;2.53;;
35223;SDS011;21367;51.930;8.112;2023-04-24T11:50:11;6.55;;;2.88;;
35223;SDS011;21367;51.930;8.112;2023-04-24T11:55:29;8.13;;;3.45;;
35223;SDS011;21367;51.930;8.112;2023-04-24T12:00:33;6.68;;;3.30;;
35223;SDS011;21367;51.930;8.112;2023-04-24T12:05:39;6.80;;;3.43;;
35223;SDS011;21367;51.930;8.112;2023-04-24T12:10:46;7.97;;;3.90;;
35223;SDS011;21367;51.930;8.112;2023-04-24T12:15:54;12.77;;;4.38;;
35223;SDS011;21367;51.930;8.112;2023-04-24T12:26:21;13.45;;;6.68;;
35223;SDS011;21367;51.930;8.112;2023-04-24T12:31:26;9.27;;;4.70;;
35223;SDS011;21367;51.930;8.112;2023-04-24T12:36:32;14.40;;;5.72;;
35223;SDS011;21367;51.930;8.112;2023-04-24T12:41:48;8.88;;;4.57;;
35223;SDS011;21367;51.930;8.112;2023-04-24T12:46:54;15.60;;;4.90;;
35223;SDS011;21367;51.930;8.112;2023-04-24T12:51:57;24.70;;;7.22;;
35223;SDS011;21367;51.930;8.112;2023-04-24T12:57:04;16.52;;;5.22;;
35223;SDS011;21367;51.930;8.112;2023-04-24T13:02:08;27.30;;;6.60;;
35223;SDS011;21367;51.930;8.112;2023-04-24T13:07:12;25.08;;;8.02;;
35223;SDS011;21367;51.930;8.112;2023-04-24T13:12:18;31.02;;;8.20;;
35223;SDS011;21367;51.930;8.112;2023-04-24T13:17:24;19.30;;;6.93;;
35223;SDS011;21367;51.930;8.112;2023-04-24T13:22:28;21.30;;;6.28;;
35223;SDS011;21367;51.930;8.112;2023-04-24T13:27:38;27.33;;;6.90;;
35223;SDS011;21367;51.930;8.112;2023-04-24T13:32:42;21.95;;;6.95;;
35223;SDS011;21367;51.930;8.112;2023-04-24T13:37:54;27.60;;;5.93;;
35223;SDS011;21367;51.930;8.112;2023-04-24T13:43:01;22.77;;;6.45;;
35223;SDS011;21367;51.930;8.112;2023-04-24T13:48:05;21.80;;;6.47;;
35223;SDS011;21367;51.930;8.112;2023-04-24T13:53:10;23.33;;;7.03;;
35223;SDS011;21367;51.930;8.112;2023-04-24T13:58:17;18.02;;;6.32;;
35223;SDS011;21367;51.930;8.112;2023-04-24T14:03:21;25.30;;;6.75;;
35223;SDS011;21367;51.930;8.112;2023-04-24T14:08:25;25.85;;;6.10;;
35223;SDS011;21367;51.930;8.112;2023-04-24T14:13:32;18.60;;;5.55;;
35223;SDS011;21367;51.930;8.112;2023-04-24T14:18:36;21.30;;;5.07;;
35223;SDS011;21367;51.930;8.112;2023-04-24T14:23:41;15.13;;;4.88;;
35223;SDS011;21367;51.930;8.112;2023-04-24T14:28:48;14.13;;;4.20;;
35223;SDS011;21367;51.930;8.112;2023-04-24T14:33:53;16.60;;;4.20;;
35223;SDS011;21367;51.930;8.112;2023-04-24T14:38:58;13.32;;;2.85;;
35223;SDS011;21367;51.930;8.112;2023-04-24T14:44:06;12.90;;;3.30;;
35223;SDS011;21367;51.930;8.112;2023-04-24T14:49:10;6.30;;;2.83;;
35223;SDS011;21367;51.930;8.112;2023-04-24T14:54:14;8.15;;;2.33;;
35223;SDS011;21367;51.930;8.112;2023-04-24T14:59:21;8.25;;;2.08;;
35223;SDS011;21367;51.930;8.112;2023-04-24T15:09:28;5.78;;;1.95;;
35223;SDS011;21367;51.930;8.112;2023-04-24T15:14:35;6.13;;;2.00;;
35223;SDS011;21367;51.930;8.112;2023-04-24T15:19:39;6.95;;;2.05;;
35223;SDS011;21367;51.930;8.112;2023-04-24T15:24:43;9.45;;;2.28;;
35223;SDS011;21367;51.930;8.112;2023-04-24T15:29:50;5.10;;;1.92;;
35223;SDS011;21367;51.930;8.112;2023-04-24T15:34:54;6.30;;;1.95;;
35223;SDS011;21367;51.930;8.112;2023-04-24T15:39:58;8.35;;;1.70;;
35223;SDS011;21367;51.930;8.112;2023-04-24T15:45:08;3.97;;;1.80;;
35223;SDS011;21367;51.930;8.112;2023-04-24T15:50:12;8.93;;;1.67;;
35223;SDS011;21367;51.930;8.112;2023-04-24T15:55:17;12.05;;;2.28;;
35223;SDS011;21367;51.930;8.112;2023-04-24T16:00:24;7.25;;;1.98;;
35223;SDS011;21367;51.930;8.112;2023-04-24T16:05:33;6.43;;;1.60;;
35223;SDS011;21367;51.930;8.112;2023-04-24T16:10:37;8.10;;;1.67;;
35223;SDS011;21367;51.930;8.112;2023-04-24T16:15:43;7.57;;;1.77;;
35223;SDS011;21367;51.930;8.112;2023-04-24T16:20:47;8.68;;;1.70;;
35223;SDS011;21367;51.930;8.112;2023-04-24T16:25:52;12.15;;;1.85;;
35223;SDS011;21367;51.930;8.112;2023-04-24T16:30:58;10.50;;;1.88;;
35223;SDS011;21367;51.930;8.112;2023-04-24T16:36:02;8.32;;;1.50;;
35223;SDS011;21367;51.930;8.112;2023-04-24T16:41:08;5.10;;;1.60;;
35223;SDS011;21367;51.930;8.112;2023-04-24T16:46:15;3.28;;;1.33;;
35223;SDS011;21367;51.930;8.112;2023-04-24T16:51:19;6.40;;;1.77;;
35223;SDS011;21367;51.930;8.112;2023-04-24T16:56:23;4.55;;;1.15;;
35223;SDS011;21367;51.930;8.112;2023-04-24T17:01:30;11.90;;;2.15;;
35223;SDS011;21367;51.930;8.112;2023-04-24T17:06:34;9.75;;;1.73;;
35223;SDS011;21367;51.930;8.112;2023-04-24T17:11:39;6.45;;;1.60;;
35223;SDS011;21367;51.930;8.112;2023-04-24T17:16:50;13.73;;;2.03;;
35223;SDS011;21367;51.930;8.112;2023-04-24T17:21:54;9.32;;;1.65;;
35223;SDS011;21367;51.930;8.112;2023-04-24T17:26:58;11.18;;;2.10;;
35223;SDS011;21367;51.930;8.112;2023-04-24T17:32:06;7.55;;;2.28;;
35223;SDS011;21367;51.930;8.112;2023-04-24T17:37:10;11.38;;;2.38;;
35223;SDS011;21367;51.930;8.112;2023-04-24T17:42:15;10.52;;;2.33;;
35223;SDS011;21367;51.930;8.112;2023-04-24T17:47:22;18.73;;;2.22;;
35223;SDS011;21367;51.930;8.112;2023-04-24T17:52:29;13.80;;;2.40;;
35223;SDS011;21367;51.930;8.112;2023-04-24T17:57:34;14.00;;;2.90;;
35223;SDS011;21367;51.930;8.112;2023-04-24T18:02:41;13.98;;;4.45;;
35223;SDS011;21367;51.930;8.112;2023-04-24T18:07:45;17.00;;;5.88;;
35223;SDS011;21367;51.930;8.112;2023-04-24T18:12:49;18.50;;;6.57;;
35223;SDS011;21367;51.930;8.112;2023-04-24T18:23:33;21.65;;;7.55;;
35223;SDS011;21367;51.930;8.112;2023-04-24T18:28:37;25.42;;;8.77;;
35223;SDS011;21367;51.930;8.112;2023-04-24T18:33:46;20.08;;;5.47;;
35223;SDS011;21367;51.930;8.112;2023-04-24T18:38:50;16.17;;;4.18;;
35223;SDS011;21367;51.930;8.112;2023-04-24T18:43:54;12.38;;;3.10;;
35223;SDS011;21367;51.930;8.112;2023-04-24T18:49:05;14.60;;;3.53;;
35223;SDS011;21367;51.930;8.112;2023-04-24T18:59:28;15.48;;;3.92;;
35223;SDS011;21367;51.930;8.112;2023-04-24T19:04:36;12.95;;;3.38;;
35223;SDS011;21367;51.930;8.112;2023-04-24T19:09:41;15.75;;;3.90;;
35223;SDS011;21367;51.930;8.112;2023-04-24T19:14:45;22.85;;;3.95;;
35223;SDS011;21367;51.930;8.112;2023-04-24T19:19:53;12.27;;;3.75;;
35223;SDS011;21367;51.930;8.112;2023-04-24T19:25:04;13.63;;;3.80;;
35223;SDS011;21367;51.930;8.112;2023-04-24T19:30:15;14.13;;;3.38;;
35223;SDS011;21367;51.930;8.112;2023-04-24T19:35:22;13.85;;;4.25;;
35223;SDS011;21367;51.930;8.112;2023-04-24T19:40:26;25.27;;;5.20;;
35223;SDS011;21367;51.930;8.112;2023-04-24T19:45:30;14.88;;;3.85;;
35223;SDS011;21367;51.930;8.112;2023-04-24T19:50:37;19.85;;;4.07;;
35223;SDS011;21367;51.930;8.112;2023-04-24T19:55:41;18.88;;;5.32;;
35223;SDS011;21367;51.930;8.112;2023-04-24T20:00:45;24.85;;;5.47;;
35223;SDS011;21367;51.930;8.112;2023-04-24T20:05:52;22.48;;;4.47;;
35223;SDS011;21367;51.930;8.112;2023-04-24T20:10:55;19.27;;;4.55;;
35223;SDS011;21367;51.930;8.112;2023-04-24T20:16:00;19.08;;;4.78;;
35223;SDS011;21367;51.930;8.112;2023-04-24T20:21:07;22.38;;;5.25;;
35223;SDS011;21367;51.930;8.112;2023-04-24T20:26:11;18.02;;;4.75;;
35223;SDS011;21367;51.930;8.112;2023-04-24T20:31:15;19.58;;;5.85;;
35223;SDS011;21367;51.930;8.112;2023-04-24T20:36:21;21.85;;;4.57;;
35223;SDS011;21367;51.930;8.112;2023-04-24T20:41:26;26.50;;;5.50;;
35223;SDS011;21367;51.930;8.112;2023-04-24T20:46:30;25.58;;;5.20;;
35223;SDS011;21367;51.930;8.112;2023-04-24T20:51:38;19.92;;;6.20;;
35223;SDS011;21367;51.930;8.112;2023-04-24T20:56:42;25.55;;;4.90;;
35223;SDS011;21367;51.930;8.112;2023-04-24T21:01:45;29.77;;;6.32;;
35223;SDS011;21367;51.930;8.112;2023-04-24T21:06:52;23.75;;;5.60;;
35223;SDS011;21367;51.930;8.112;2023-04-24T21:11:56;21.50;;;5.53;;
35223;SDS011;21367;51.930;8.112;2023-04-24T21:17:02;15.23;;;5.47;;
35223;SDS011;21367;51.930;8.112;2023-04-24T21:22:08;18.38;;;6.07;;
35223;SDS011;21367;51.930;8.112;2023-04-24T21:27:14;23.98;;;6.07;;
35223;SDS011;21367;51.930;8.112;2023-04-24T21:32:19;21.10;;;6.30;;
35223;SDS011;21367;51.930;8.112;2023-04-24T21:37:26;23.27;;;6.47;;
35223;SDS011;21367;51.930;8.112;2023-04-24T21:42:30;28.58;;;7.05;;
35223;SDS011;21367;51.930;8.112;2023-04-24T21:47:34;26.58;;;6.35;;
35223;SDS011;21367;51.930;8.112;2023-04-24T21:52:40;17.90;;;5.90;;
35223;SDS011;21367;51.930;8.112;2023-04-24T21:57:44;22.95;;;6.40;;
35223;SDS011;21367;51.930;8.112;2023-04-24T22:02:48;28.73;;;7.38;;
35223;SDS011;21367;51.930;8.112;2023-04-24T22:07:56;23.48;;;5.95;;
35223;SDS011;21367;51.930;8.112;2023-04-24T22:13:01;29.80;;;6.70;;
35223;SDS011;21367;51.930;8.112;2023-04-24T22:18:05;32.97;;;7.03;;
35223;SDS011;21367;51.930;8.112;2023-04-24T22:23:14;37.83;;;7.50;;
35223;SDS011;21367;51.930;8.112;2023-04-24T22:28:18;27.92;;;6.68;;
35223;SDS011;21367;51.930;8.112;2023-04-24T22:33:21;35.50;;;7.25;;
35223;SDS011;21367;51.930;8.112;2023-04-24T22:38:28;21.58;;;6.20;;
35223;SDS011;21367;51.930;8.112;2023-04-24T22:48:36;23.50;;;6.38;;
35223;SDS011;21367;51.930;8.112;2023-04-24T22:53:42;28.67;;;6.22;;
35223;SDS011;21367;51.930;8.112;2023-04-24T22:58:48;25.90;;;7.07;;
35223;SDS011;21367;51.930;8.112;2023-04-24T23:03:52;29.08;;;6.03;;
35223;SDS011;21367;51.930;8.112;2023-04-24T23:08:59;27.83;;;6.75;;
35223;SDS011;21367;51.930;8.112;2023-04-24T23:14:03;27.77;;;6.35;;
35223;SDS011;21367;51.930;8.112;2023-04-24T23:19:07;32.50;;;6.13;;
35223;SDS011;21367;51.930;8.112;2023-04-24T23:24:14;22.10;;;6.22;;
35223;SDS011;21367;51.930;8.112;2023-04-24T23:34:22;27.35;;;6.88;;
35223;SDS011;21367;51.930;8.112;2023-04-24T23:39:29;25.63;;;6.55;;
35223;SDS011;21367;51.930;8.112;2023-04-24T23:49:36;32.25;;;6.18;;
35223;SDS011;21367;51.930;8.112;2023-04-24T23:54:43;31.33;;;6.25;;
